Decoded Metar for KLGU (LOGAN in UT, USA) (IATA:LGU) | Meteo·Mobile Aviation Weather
aviador You're here:

KLGU Decoded Metar

LOGAN in UT, USA
Report Time2019-02-17 16:51:00
UTC Time2019-02-17 16:58:21
Flight Rules vfr VFR
Wind340° at 03 kt
W.Decomp.*RWY 35: 2.7 kt HW 1.2 kt LCW
RWY 28: 2.1 kt HW 2.2 kt RCW
W.Rank340° ranks 3
Current wind is below 340° avg. (5.9)
Visibility9999 m
Phenomena:N/A
Clouds:Broken 065 Hf
Expected CloudBase > 800 ft AGL from Temp-Dew spread
Ceiling6,500 ft
Temp-4°C (ISA -10)
Dew Point-6°C (86% RH)
AAT-7.8°C
QNH1010 hPa
Density Alt3,389 ft
Elevation4,457 ft
Report Wrong Elevation
Raw Report
KLGU 171651Z AUTO 34003KT 10SM BKN065 M04/M06 A2984 RMK AO2 SLP132
T10441061 $=

Extra information for KLGU:More info

Metar Taf Metar & Taf Last 4 Metars F.Rules Stats Wind Profile Meteogram Temp Stats Airport Information Weather charts Add Link Nearby VenuesMetar ALERT Operation Metar Decoded Social comments

AIRNAV info for KLGU